createdAt,value
2022-09-17T00:00:17.597Z,18.32
2022-09-17T00:02:56.134Z,14.73
2022-09-17T00:05:29.107Z,16.45
2022-09-17T00:08:02.258Z,16.57
2022-09-17T00:10:42.008Z,16.75
2022-09-17T00:13:16.702Z,18.17
2022-09-17T00:15:50.099Z,19.77
2022-09-17T00:18:22.863Z,17.17
2022-09-17T00:20:55.956Z,18.73
2022-09-17T00:23:28.711Z,16.52
2022-09-17T00:26:01.770Z,15.15
2022-09-17T00:28:34.997Z,15.50
2022-09-17T00:31:11.482Z,21.82
2022-09-17T00:33:44.508Z,18.30
2022-09-17T00:36:18.399Z,18.37
2022-09-17T00:38:56.331Z,18.80
2022-09-17T00:41:35.098Z,17.98
2022-09-17T00:44:49.297Z,18.17
2022-09-17T00:47:30.118Z,18.32
2022-09-17T00:50:22.790Z,19.40
2022-09-17T00:53:08.224Z,17.75
2022-09-17T00:56:02.066Z,20.30
2022-09-17T00:58:41.017Z,24.05
2022-09-17T01:01:10.853Z,17.55
2022-09-17T01:03:43.777Z,19.40
2022-09-17T01:06:33.752Z,15.83
2022-09-17T01:09:46.458Z,16.12
2022-09-17T01:12:58.592Z,15.58
2022-09-17T01:15:57.150Z,17.07
2022-09-17T01:19:12.359Z,19.35
2022-09-17T01:21:56.186Z,16.50
2022-09-17T01:25:07.001Z,15.95
2022-09-17T01:28:17.829Z,18.05
2022-09-17T01:31:05.254Z,17.05
2022-09-17T01:34:08.296Z,19.10
2022-09-17T01:36:58.526Z,18.82
2022-09-17T01:39:58.171Z,20.17
2022-09-17T01:43:07.757Z,19.75
2022-09-17T01:45:48.119Z,21.23
2022-09-17T01:48:24.587Z,15.98
2022-09-17T01:51:07.559Z,16.80
2022-09-17T01:54:05.872Z,16.80
2022-09-17T01:56:43.748Z,14.93
2022-09-17T01:59:21.975Z,14.95
2022-09-17T02:01:58.681Z,17.50
2022-09-17T02:04:35.320Z,18.60
2022-09-17T02:07:12.733Z,18.20
2022-09-17T02:09:54.759Z,16.07
2022-09-17T02:12:41.039Z,18.30
2022-09-17T02:15:21.803Z,20.25
2022-09-17T02:18:08.749Z,19.02
2022-09-17T02:20:52.204Z,21.50
2022-09-17T02:23:29.885Z,19.52
2022-09-17T02:26:09.099Z,18.57
2022-09-17T02:29:09.471Z,20.82
2022-09-17T02:31:48.729Z,20.97
2022-09-17T02:34:22.856Z,20.20
2022-09-17T02:36:59.822Z,20.85
2022-09-17T02:39:33.750Z,19.98
2022-09-17T02:42:35.496Z,25.75
2022-09-17T02:45:18.836Z,22.50
2022-09-17T02:48:31.096Z,18.43
2022-09-17T02:51:20.503Z,19.32
2022-09-17T02:54:21.915Z,19.25
2022-09-17T02:57:09.143Z,20.17
2022-09-17T02:59:52.837Z,18.52
2022-09-17T03:02:32.503Z,17.67
2022-09-17T03:05:06.807Z,19.40
2022-09-17T03:07:41.652Z,23.73
2022-09-17T03:10:14.902Z,21.93
2022-09-17T03:12:48.861Z,19.67
2022-09-17T03:15:21.717Z,19.30
2022-09-17T03:17:56.441Z,20.82
2022-09-17T03:20:29.634Z,17.70
2022-09-17T03:23:03.359Z,20.27
2022-09-17T03:25:36.739Z,21.25
2022-09-17T03:28:09.944Z,18.98
2022-09-17T03:30:45.148Z,21.70
2022-09-17T03:33:18.084Z,21.65
2022-09-17T03:35:51.227Z,19.90
2022-09-17T03:38:24.056Z,23.40
2022-09-17T03:41:07.746Z,20.95
2022-09-17T03:43:40.788Z,22.58
2022-09-17T03:46:14.141Z,23.73
2022-09-17T03:48:47.605Z,23.95
2022-09-17T03:51:21.121Z,20.08
2022-09-17T03:53:54.457Z,22.65
2022-09-17T03:56:27.234Z,22.20
2022-09-17T03:59:02.185Z,23.00
2022-09-17T04:01:36.594Z,23.67
2022-09-17T04:04:09.547Z,26.05
2022-09-17T04:06:42.673Z,22.27
2022-09-17T04:09:17.234Z,22.85
2022-09-17T04:11:50.063Z,26.47
2022-09-17T04:14:22.939Z,24.40
2022-09-17T04:16:56.308Z,22.00
2022-09-17T04:19:29.744Z,26.82
2022-09-17T04:22:02.575Z,25.17
2022-09-17T04:24:35.580Z,27.00
2022-09-17T04:27:08.416Z,24.05
2022-09-17T04:29:41.439Z,27.40
2022-09-17T04:32:14.525Z,26.48
2022-09-17T04:34:47.670Z,28.23
2022-09-17T04:37:20.458Z,26.00
2022-09-17T04:39:54.036Z,24.80
2022-09-17T04:42:26.894Z,29.53
2022-09-17T04:45:00.101Z,27.15
2022-09-17T04:47:33.050Z,24.98
2022-09-17T04:50:07.010Z,25.35
2022-09-17T04:52:44.676Z,24.02
2022-09-17T04:55:18.144Z,21.20
2022-09-17T04:57:53.217Z,24.35
2022-09-17T05:00:26.555Z,24.00
2022-09-17T05:03:01.149Z,25.95
2022-09-17T05:05:34.202Z,27.50
2022-09-17T05:08:08.702Z,23.70
2022-09-17T05:10:41.715Z,23.73
2022-09-17T05:13:14.975Z,24.77
2022-09-17T05:15:48.257Z,23.55
2022-09-17T05:18:21.020Z,22.27
2022-09-17T05:20:54.046Z,25.37
2022-09-17T05:23:26.690Z,21.48
2022-09-17T05:26:03.428Z,24.57
2022-09-17T05:28:36.935Z,22.65
2022-09-17T05:31:10.396Z,22.73
2022-09-17T05:33:43.283Z,22.27
2022-09-17T05:36:16.375Z,21.37
2022-09-17T05:38:49.248Z,26.25
2022-09-17T05:41:22.331Z,23.15
2022-09-17T05:43:55.243Z,23.07
2022-09-17T05:46:28.358Z,22.98
2022-09-17T05:49:01.117Z,28.05
2022-09-17T05:51:34.035Z,36.75
2022-09-17T05:54:07.349Z,23.65
2022-09-17T05:56:40.203Z,21.83
2022-09-17T05:59:13.080Z,20.40
2022-09-17T06:01:46.916Z,21.40
2022-09-17T06:04:20.064Z,22.82
2022-09-17T06:06:52.878Z,21.90
2022-09-17T06:09:26.965Z,22.95
2022-09-17T06:11:59.834Z,23.22
2022-09-17T06:14:33.560Z,24.87
2022-09-17T06:17:06.923Z,19.37
2022-09-17T06:19:40.003Z,22.37
2022-09-17T06:22:12.959Z,18.95
2022-09-17T06:24:45.941Z,19.37
2022-09-17T06:27:18.854Z,20.52
2022-09-17T06:29:51.964Z,18.98
2022-09-17T06:32:24.947Z,22.30
2022-09-17T06:34:58.327Z,20.92
2022-09-17T06:37:33.709Z,21.20
2022-09-17T06:40:09.657Z,20.68
2022-09-17T06:42:43.719Z,20.25
2022-09-17T06:45:17.150Z,19.67
2022-09-17T06:47:49.999Z,22.22
2022-09-17T06:50:23.411Z,20.23
2022-09-17T06:52:56.927Z,21.27
2022-09-17T06:55:29.797Z,24.30
2022-09-17T06:58:02.554Z,21.75
2022-09-17T07:00:36.625Z,18.85
2022-09-17T07:03:10.658Z,20.27
2022-09-17T07:05:47.323Z,22.50
2022-09-17T07:08:20.976Z,21.42
2022-09-17T07:10:59.179Z,21.42
2022-09-17T07:13:32.412Z,20.17
2022-09-17T07:16:07.608Z,20.82
2022-09-17T07:18:40.514Z,24.85
2022-09-17T07:21:13.728Z,21.57
2022-09-17T07:23:47.165Z,20.45
2022-09-17T07:26:20.209Z,21.40
2022-09-17T07:28:53.584Z,18.23
2022-09-17T07:31:28.895Z,19.37
2022-09-17T07:34:02.453Z,17.80
2022-09-17T07:36:36.774Z,18.82
2022-09-17T07:39:11.857Z,17.02
2022-09-17T07:41:47.033Z,18.73
2022-09-17T07:44:20.260Z,18.70
2022-09-17T07:46:54.456Z,18.73
2022-09-17T07:49:27.573Z,17.00
2022-09-17T07:52:02.008Z,18.23
2022-09-17T07:54:39.932Z,15.93
2022-09-17T07:57:13.352Z,16.55
2022-09-17T07:59:46.337Z,17.23
2022-09-17T08:02:24.085Z,17.33
2022-09-17T08:04:55.885Z,17.80
2022-09-17T08:07:29.005Z,18.25
2022-09-17T08:10:02.647Z,16.05
2022-09-17T08:12:36.040Z,16.27
2022-09-17T08:15:09.812Z,14.28
2022-09-17T08:17:47.551Z,14.10
2022-09-17T08:20:21.185Z,16.60
2022-09-17T08:23:02.091Z,12.85
2022-09-17T08:25:35.421Z,14.20
2022-09-17T08:30:41.706Z,10.60
2022-09-17T08:33:14.405Z,9.75
2022-09-17T08:35:59.172Z,8.35
2022-09-17T08:38:38.295Z,9.55
2022-09-17T08:41:36.766Z,9.63
2022-09-17T08:44:23.782Z,8.98
2022-09-17T08:47:18.762Z,8.93
2022-09-17T08:53:16.147Z,8.38
2022-09-17T08:56:14.042Z,10.10
2022-09-17T08:59:04.210Z,9.50
2022-09-17T09:02:04.467Z,13.93
2022-09-17T09:04:48.100Z,8.20
2022-09-17T09:07:28.231Z,9.68
2022-09-17T09:10:23.591Z,9.48
2022-09-17T09:12:59.184Z,9.05
2022-09-17T09:15:44.948Z,11.57
2022-09-17T09:18:27.803Z,9.00
2022-09-17T09:21:09.174Z,7.80
2022-09-17T09:23:59.288Z,10.45
2022-09-17T09:27:04.397Z,7.97
2022-09-17T09:29:50.679Z,9.25
2022-09-17T09:32:59.292Z,10.30
2022-09-17T09:35:35.685Z,9.93
2022-09-17T09:38:35.629Z,9.15
2022-09-17T09:41:19.768Z,8.68
2022-09-17T09:47:04.368Z,9.55
2022-09-17T09:52:47.368Z,7.75
2022-09-17T09:55:33.320Z,9.65
2022-09-17T09:58:29.125Z,7.78
2022-09-17T10:01:02.157Z,8.13
2022-09-17T10:03:36.517Z,8.75
2022-09-17T10:06:11.805Z,8.15
2022-09-17T10:08:55.100Z,9.73
2022-09-17T10:11:30.783Z,8.60
2022-09-17T10:14:31.272Z,7.58
2022-09-17T10:17:23.156Z,8.78
2022-09-17T10:20:10.862Z,7.72
2022-09-17T10:22:48.163Z,9.50
2022-09-17T10:25:28.945Z,9.20
2022-09-17T10:28:05.493Z,9.65
2022-09-17T10:30:38.330Z,9.45
2022-09-17T10:33:21.657Z,10.45
2022-09-17T10:36:06.516Z,9.00
2022-09-17T10:41:24.959Z,8.68
2022-09-17T10:43:57.896Z,8.53
2022-09-17T10:46:34.296Z,11.22
2022-09-17T10:49:37.327Z,10.10
2022-09-17T10:52:26.413Z,9.65
2022-09-17T10:55:19.009Z,8.33
2022-09-17T10:58:11.660Z,13.58
2022-09-17T11:01:10.556Z,9.83
2022-09-17T11:04:14.866Z,7.40
2022-09-17T11:07:25.937Z,7.80
2022-09-17T11:10:24.840Z,7.53
2022-09-17T11:13:17.704Z,7.92
2022-09-17T11:16:29.883Z,7.50
2022-09-17T11:19:36.661Z,8.43
2022-09-17T11:22:28.554Z,6.62
2022-09-17T11:25:23.839Z,8.73
2022-09-17T11:28:38.991Z,6.83
2022-09-17T11:31:49.952Z,6.55
2022-09-17T11:34:29.903Z,8.03
2022-09-17T11:37:16.070Z,11.20
2022-09-17T11:40:06.628Z,10.82
2022-09-17T11:42:46.876Z,10.93
2022-09-17T11:45:38.631Z,10.72
2022-09-17T11:48:21.761Z,9.98
2022-09-17T11:51:28.182Z,11.50
2022-09-17T11:54:25.769Z,9.00
2022-09-17T11:57:12.323Z,12.35
2022-09-17T11:59:53.380Z,11.85
2022-09-17T12:02:46.048Z,14.55
2022-09-17T12:05:47.503Z,15.43
2022-09-17T12:08:43.988Z,24.60
2022-09-17T12:11:23.712Z,24.12
2022-09-17T12:14:00.817Z,10.85
2022-09-17T12:16:43.905Z,20.32
2022-09-17T12:19:44.443Z,18.02
2022-09-17T12:22:21.516Z,12.47
2022-09-17T12:24:55.227Z,21.97
2022-09-17T12:30:23.175Z,8.55
2022-09-17T12:36:14.122Z,11.10
2022-09-17T12:39:06.754Z,12.13
2022-09-17T12:41:58.351Z,10.23
2022-09-17T12:44:56.660Z,7.30
2022-09-17T12:47:52.280Z,9.23
2022-09-17T12:50:47.552Z,7.75
2022-09-17T12:53:45.019Z,20.00
2022-09-17T12:56:28.595Z,19.20
2022-09-17T12:59:20.981Z,16.73
2022-09-17T13:02:19.032Z,12.60
2022-09-17T13:05:07.889Z,7.67
2022-09-17T13:08:12.609Z,7.50
2022-09-17T13:13:55.485Z,20.45
2022-09-17T13:16:39.167Z,9.20
2022-09-17T13:19:45.822Z,7.78
2022-09-17T13:22:29.177Z,8.53
2022-09-17T13:25:10.607Z,7.45
2022-09-17T13:27:44.799Z,12.53
2022-09-17T13:30:21.176Z,12.78
2022-09-17T13:32:55.329Z,10.50
2022-09-17T13:38:03.562Z,9.48
2022-09-17T13:40:38.425Z,10.37
2022-09-17T13:43:15.447Z,7.87
2022-09-17T13:46:08.817Z,14.43
2022-09-17T13:48:49.462Z,11.43
2022-09-17T13:51:41.893Z,9.63
2022-09-17T13:54:16.573Z,12.07
2022-09-17T13:56:53.968Z,12.78
2022-09-17T13:59:28.841Z,12.53
2022-09-17T14:02:21.334Z,13.80
2022-09-17T14:05:19.913Z,16.00
2022-09-17T14:07:57.549Z,15.23
2022-09-17T14:10:38.230Z,16.17
2022-09-17T14:13:30.492Z,15.78
2022-09-17T14:16:04.043Z,17.30
2022-09-17T14:18:39.236Z,14.98
2022-09-17T14:21:28.946Z,15.23
2022-09-17T14:24:05.934Z,16.25
2022-09-17T14:27:12.541Z,18.55
2022-09-17T14:30:23.057Z,25.80
2022-09-17T14:33:19.047Z,26.70
2022-09-17T14:35:59.516Z,28.57
2022-09-17T14:38:41.333Z,19.70
2022-09-17T14:41:21.741Z,15.03
2022-09-17T14:44:07.404Z,12.63
2022-09-17T14:46:49.775Z,12.53
2022-09-17T14:49:32.173Z,14.98
2022-09-17T14:52:27.537Z,14.47
2022-09-17T14:55:26.835Z,24.55
2022-09-17T14:58:05.216Z,23.45
2022-09-17T15:00:39.804Z,29.95
2022-09-17T15:03:24.106Z,19.67
2022-09-17T15:05:57.596Z,36.63
2022-09-17T15:08:31.044Z,16.57
2022-09-17T15:11:12.064Z,18.12
2022-09-17T15:13:53.076Z,15.90
2022-09-17T15:16:30.013Z,13.28
2022-09-17T15:19:05.357Z,21.57
2022-09-17T15:21:49.496Z,23.18
2022-09-17T15:24:51.007Z,23.35
2022-09-17T15:27:39.311Z,24.67
2022-09-17T15:30:17.076Z,18.05
2022-09-17T15:32:58.996Z,19.07
2022-09-17T15:35:35.692Z,18.55
2022-09-17T15:38:29.267Z,18.02
2022-09-17T15:41:35.057Z,15.95
2022-09-17T15:44:30.805Z,18.77
2022-09-17T15:47:53.956Z,24.52
2022-09-17T15:50:36.241Z,18.42
2022-09-17T15:53:15.137Z,17.82
2022-09-17T15:55:50.504Z,18.52
2022-09-17T15:58:27.732Z,18.73
2022-09-17T16:01:20.232Z,17.50
2022-09-17T16:04:09.624Z,15.72
2022-09-17T16:06:55.892Z,15.53
2022-09-17T16:09:48.212Z,17.67
2022-09-17T16:12:24.390Z,17.73
2022-09-17T16:15:01.601Z,17.23
2022-09-17T16:17:44.422Z,12.88
2022-09-17T16:20:27.008Z,13.70
2022-09-17T16:23:00.386Z,14.68
2022-09-17T16:25:33.592Z,13.68
2022-09-17T16:28:16.152Z,13.40
2022-09-17T16:30:50.388Z,12.30
2022-09-17T16:33:23.352Z,16.75
2022-09-17T16:36:00.813Z,14.38
2022-09-17T16:38:35.566Z,15.90
2022-09-17T16:41:08.840Z,13.60
2022-09-17T16:43:41.478Z,12.60
2022-09-17T16:46:15.199Z,19.23
2022-09-17T16:48:51.918Z,18.40
2022-09-17T16:51:24.604Z,15.38
2022-09-17T16:53:58.440Z,16.80
2022-09-17T16:56:31.965Z,15.50
2022-09-17T16:59:04.685Z,14.53
2022-09-17T17:01:38.671Z,14.50
2022-09-17T17:04:11.515Z,16.55
2022-09-17T17:09:17.473Z,11.57
2022-09-17T17:11:52.207Z,13.43
2022-09-17T17:14:25.708Z,8.83
2022-09-17T17:16:59.092Z,10.07
2022-09-17T17:19:32.238Z,10.45
2022-09-17T17:22:07.309Z,12.55
2022-09-17T17:24:42.018Z,11.18
2022-09-17T17:27:15.738Z,11.95
2022-09-17T17:29:48.754Z,8.83
2022-09-17T17:32:22.303Z,8.18
2022-09-17T17:34:55.249Z,9.23
2022-09-17T17:37:28.765Z,9.15
2022-09-17T17:40:04.063Z,9.65
2022-09-17T17:42:39.127Z,9.45
2022-09-17T17:45:12.987Z,8.73
2022-09-17T17:47:46.572Z,6.42
2022-09-17T17:50:19.944Z,7.00
2022-09-17T17:52:57.694Z,11.28
2022-09-17T17:55:30.649Z,6.58
2022-09-17T17:58:03.649Z,6.78
2022-09-17T18:00:36.593Z,5.83
2022-09-17T18:03:11.659Z,6.35
2022-09-17T18:05:45.315Z,7.83
2022-09-17T18:08:20.029Z,8.15
2022-09-17T18:10:57.897Z,8.53
2022-09-17T18:13:32.575Z,8.63
2022-09-17T18:16:07.874Z,5.78
2022-09-17T18:18:45.264Z,9.98
2022-09-17T18:21:22.133Z,5.87
2022-09-17T18:23:55.783Z,6.28
2022-09-17T18:26:30.078Z,5.53
2022-09-17T18:31:38.286Z,6.42
2022-09-17T18:34:14.984Z,5.90
2022-09-17T18:36:51.212Z,4.85
2022-09-17T18:41:58.455Z,5.67
2022-09-17T18:44:31.367Z,4.08
2022-09-17T18:47:05.235Z,7.10
2022-09-17T18:49:38.445Z,6.95
2022-09-17T18:52:12.101Z,4.10
2022-09-17T18:54:46.353Z,6.35
2022-09-17T18:59:51.149Z,4.50
2022-09-17T19:02:24.336Z,5.05
2022-09-17T19:04:57.686Z,6.28
2022-09-17T19:07:31.138Z,3.58
2022-09-17T19:10:03.965Z,7.45
2022-09-17T19:12:36.673Z,4.10
2022-09-17T19:15:11.790Z,5.67
2022-09-17T19:17:46.390Z,4.47
2022-09-17T19:20:20.087Z,4.75
2022-09-17T19:22:54.019Z,5.60
2022-09-17T19:25:28.434Z,7.08
2022-09-17T19:28:01.575Z,5.75
2022-09-17T19:30:34.599Z,5.17
2022-09-17T19:33:07.641Z,5.22
2022-09-17T19:35:42.011Z,5.40
2022-09-17T19:38:15.065Z,5.97
2022-09-17T19:40:59.186Z,4.97
2022-09-17T19:43:32.611Z,5.15
2022-09-17T19:46:12.142Z,5.47
2022-09-17T19:48:53.958Z,7.35
2022-09-17T19:51:29.943Z,5.62
2022-09-17T19:54:02.687Z,5.65
2022-09-17T19:56:35.663Z,5.37
2022-09-17T19:59:08.482Z,7.20
2022-09-17T20:01:43.939Z,6.53
2022-09-17T20:04:18.301Z,8.18
2022-09-17T20:06:52.061Z,8.65
2022-09-17T20:09:24.793Z,7.30
2022-09-17T20:11:59.278Z,6.35
2022-09-17T20:14:32.786Z,7.95
2022-09-17T20:17:06.896Z,11.15
2022-09-17T20:19:39.807Z,9.10
2022-09-17T20:22:14.412Z,7.35
2022-09-17T20:24:50.945Z,7.65
2022-09-17T20:27:22.084Z,8.08
2022-09-17T20:29:55.795Z,7.90
2022-09-17T20:32:29.040Z,8.53
2022-09-17T20:35:02.364Z,8.15
2022-09-17T20:38:18.842Z,9.93
2022-09-17T20:40:31.305Z,7.85
2022-09-17T20:43:04.015Z,8.00
2022-09-17T20:45:36.769Z,10.35
2022-09-17T20:51:04.946Z,10.48
2022-09-17T20:53:39.335Z,10.15
2022-09-17T20:56:18.103Z,9.00
2022-09-17T20:59:03.449Z,10.00
2022-09-17T21:01:34.829Z,11.05
2022-09-17T21:04:09.915Z,11.25
2022-09-17T21:06:44.738Z,10.23
2022-09-17T21:09:17.766Z,10.00
2022-09-17T21:11:51.335Z,9.00
2022-09-17T21:14:26.919Z,10.45
2022-09-17T21:17:00.044Z,11.20
2022-09-17T21:19:32.982Z,10.23
2022-09-17T21:22:06.257Z,8.20
2022-09-17T21:24:39.187Z,8.45
2022-09-17T21:27:12.082Z,8.20
2022-09-17T21:29:44.918Z,8.23
2022-09-17T21:32:17.608Z,8.60
2022-09-17T21:34:51.162Z,8.53
2022-09-17T21:37:24.384Z,9.48
2022-09-17T21:39:57.488Z,8.83
2022-09-17T21:42:30.991Z,8.68
2022-09-17T21:45:04.214Z,8.87
2022-09-17T21:47:38.408Z,9.08
2022-09-17T21:50:11.443Z,8.60
2022-09-17T21:52:44.120Z,7.83
2022-09-17T21:55:17.132Z,9.75
2022-09-17T21:57:50.637Z,10.48
2022-09-17T22:00:25.909Z,9.28
2022-09-17T22:03:00.329Z,8.85
2022-09-17T22:05:36.913Z,10.55
2022-09-17T22:08:09.487Z,9.68
2022-09-17T22:10:42.678Z,9.03
2022-09-17T22:13:15.560Z,11.97
2022-09-17T22:15:58.239Z,9.27
2022-09-17T22:18:31.669Z,8.08
2022-09-17T22:21:21.323Z,10.88
2022-09-17T22:23:56.898Z,9.58
2022-09-17T22:26:32.994Z,9.60
2022-09-17T22:29:11.168Z,7.70
2022-09-17T22:31:45.059Z,11.78
2022-09-17T22:36:53.238Z,8.50
2022-09-17T22:39:26.004Z,9.35
2022-09-17T22:41:58.769Z,10.10
2022-09-17T22:44:31.533Z,9.13
2022-09-17T22:47:04.742Z,8.80
2022-09-17T22:49:37.739Z,8.65
2022-09-17T22:52:10.549Z,7.72
2022-09-17T22:54:43.661Z,9.48
2022-09-17T22:57:16.493Z,10.03
2022-09-17T22:59:49.378Z,8.40
2022-09-17T23:02:22.357Z,8.45
2022-09-17T23:04:56.720Z,10.43
2022-09-17T23:07:29.943Z,13.50
2022-09-17T23:10:02.684Z,7.78
2022-09-17T23:12:35.682Z,7.92
2022-09-17T23:15:10.866Z,8.18
2022-09-17T23:17:44.873Z,9.30
2022-09-17T23:20:17.589Z,8.70
2022-09-17T23:22:50.519Z,8.38
2022-09-17T23:25:23.353Z,8.00
2022-09-17T23:27:57.666Z,7.40
2022-09-17T23:30:31.085Z,11.63
2022-09-17T23:33:04.159Z,8.65
2022-09-17T23:35:37.111Z,10.32
2022-09-17T23:38:09.985Z,8.60
2022-09-17T23:40:43.046Z,8.43
2022-09-17T23:43:16.111Z,8.10
2022-09-17T23:45:57.670Z,8.75
2022-09-17T23:48:30.631Z,8.65
2022-09-17T23:51:03.672Z,7.85
2022-09-17T23:53:38.054Z,8.30
2022-09-17T23:56:18.171Z,8.48
2022-09-17T23:58:52.098Z,8.43
